sensor_id;sensor_type;location;lat;lon;timestamp;P1;durP1;ratioP1;P2;durP2;ratioP2
24008;SDS011;12217;50.792;4.372;2023-05-24T00:01:15;12.02;;;3.30;;
24008;SDS011;12217;50.792;4.372;2023-05-24T00:03:49;18.75;;;3.45;;
24008;SDS011;12217;50.792;4.372;2023-05-24T00:06:16;16.90;;;3.85;;
24008;SDS011;12217;50.792;4.372;2023-05-24T00:08:42;17.23;;;3.50;;
24008;SDS011;12217;50.792;4.372;2023-05-24T00:11:07;17.00;;;3.70;;
24008;SDS011;12217;50.792;4.372;2023-05-24T00:13:34;11.35;;;3.28;;
24008;SDS011;12217;50.792;4.372;2023-05-24T00:16:00;13.13;;;3.72;;
24008;SDS011;12217;50.792;4.372;2023-05-24T00:18:26;14.02;;;3.55;;
24008;SDS011;12217;50.792;4.372;2023-05-24T00:20:51;12.90;;;3.38;;
24008;SDS011;12217;50.792;4.372;2023-05-24T00:23:17;12.43;;;3.25;;
24008;SDS011;12217;50.792;4.372;2023-05-24T00:25:43;15.88;;;3.58;;
24008;SDS011;12217;50.792;4.372;2023-05-24T00:28:08;12.07;;;4.15;;
24008;SDS011;12217;50.792;4.372;2023-05-24T00:30:34;12.18;;;3.80;;
24008;SDS011;12217;50.792;4.372;2023-05-24T00:33:00;11.98;;;3.35;;
24008;SDS011;12217;50.792;4.372;2023-05-24T00:35:25;13.85;;;3.63;;
24008;SDS011;12217;50.792;4.372;2023-05-24T00:37:51;12.68;;;3.97;;
24008;SDS011;12217;50.792;4.372;2023-05-24T00:40:17;11.50;;;3.42;;
24008;SDS011;12217;50.792;4.372;2023-05-24T00:42:42;14.45;;;3.78;;
24008;SDS011;12217;50.792;4.372;2023-05-24T00:45:08;9.90;;;3.38;;
24008;SDS011;12217;50.792;4.372;2023-05-24T00:47:34;13.85;;;4.22;;
24008;SDS011;12217;50.792;4.372;2023-05-24T00:50:00;18.83;;;3.58;;
24008;SDS011;12217;50.792;4.372;2023-05-24T00:52:26;20.52;;;4.43;;
24008;SDS011;12217;50.792;4.372;2023-05-24T00:54:52;18.15;;;4.07;;
24008;SDS011;12217;50.792;4.372;2023-05-24T00:57:18;13.95;;;3.70;;
24008;SDS011;12217;50.792;4.372;2023-05-24T00:59:44;15.48;;;4.32;;
24008;SDS011;12217;50.792;4.372;2023-05-24T01:02:10;13.88;;;3.65;;
24008;SDS011;12217;50.792;4.372;2023-05-24T01:04:36;14.85;;;4.07;;
24008;SDS011;12217;50.792;4.372;2023-05-24T01:07:08;14.23;;;3.35;;
24008;SDS011;12217;50.792;4.372;2023-05-24T01:09:54;18.50;;;3.50;;
24008;SDS011;12217;50.792;4.372;2023-05-24T01:12:52;13.00;;;3.47;;
24008;SDS011;12217;50.792;4.372;2023-05-24T01:15:34;17.15;;;4.50;;
24008;SDS011;12217;50.792;4.372;2023-05-24T01:21:00;14.40;;;3.95;;
24008;SDS011;12217;50.792;4.372;2023-05-24T01:23:38;15.88;;;3.92;;
24008;SDS011;12217;50.792;4.372;2023-05-24T01:29:16;13.88;;;4.03;;
24008;SDS011;12217;50.792;4.372;2023-05-24T01:31:42;12.77;;;4.15;;
24008;SDS011;12217;50.792;4.372;2023-05-24T01:34:08;20.08;;;3.70;;
24008;SDS011;12217;50.792;4.372;2023-05-24T01:36:33;14.15;;;3.90;;
24008;SDS011;12217;50.792;4.372;2023-05-24T01:39:00;14.05;;;4.20;;
24008;SDS011;12217;50.792;4.372;2023-05-24T01:41:35;17.15;;;3.88;;
24008;SDS011;12217;50.792;4.372;2023-05-24T01:44:10;15.35;;;3.83;;
24008;SDS011;12217;50.792;4.372;2023-05-24T01:46:43;12.70;;;3.63;;
24008;SDS011;12217;50.792;4.372;2023-05-24T01:49:18;14.63;;;3.35;;
24008;SDS011;12217;50.792;4.372;2023-05-24T01:51:52;15.45;;;3.63;;
24008;SDS011;12217;50.792;4.372;2023-05-24T01:54:22;11.88;;;3.60;;
24008;SDS011;12217;50.792;4.372;2023-05-24T01:56:51;13.68;;;4.28;;
24008;SDS011;12217;50.792;4.372;2023-05-24T01:59:18;15.25;;;3.58;;
24008;SDS011;12217;50.792;4.372;2023-05-24T02:01:46;18.92;;;3.85;;
24008;SDS011;12217;50.792;4.372;2023-05-24T02:04:12;12.95;;;4.03;;
24008;SDS011;12217;50.792;4.372;2023-05-24T02:06:38;13.20;;;4.15;;
24008;SDS011;12217;50.792;4.372;2023-05-24T02:09:03;15.75;;;4.03;;
24008;SDS011;12217;50.792;4.372;2023-05-24T02:11:29;16.67;;;3.53;;
24008;SDS011;12217;50.792;4.372;2023-05-24T02:13:54;18.55;;;4.68;;
24008;SDS011;12217;50.792;4.372;2023-05-24T02:16:20;17.40;;;4.07;;
24008;SDS011;12217;50.792;4.372;2023-05-24T02:18:47;14.23;;;3.83;;
24008;SDS011;12217;50.792;4.372;2023-05-24T02:21:14;12.18;;;3.63;;
24008;SDS011;12217;50.792;4.372;2023-05-24T02:23:40;12.70;;;3.85;;
24008;SDS011;12217;50.792;4.372;2023-05-24T02:26:06;14.07;;;3.95;;
24008;SDS011;12217;50.792;4.372;2023-05-24T02:28:35;14.32;;;3.75;;
24008;SDS011;12217;50.792;4.372;2023-05-24T02:31:01;12.52;;;3.55;;
24008;SDS011;12217;50.792;4.372;2023-05-24T02:33:26;17.40;;;3.90;;
24008;SDS011;12217;50.792;4.372;2023-05-24T02:35:53;15.70;;;4.15;;
24008;SDS011;12217;50.792;4.372;2023-05-24T02:38:20;16.65;;;4.43;;
24008;SDS011;12217;50.792;4.372;2023-05-24T02:40:46;13.02;;;4.35;;
24008;SDS011;12217;50.792;4.372;2023-05-24T02:43:12;21.55;;;4.78;;
24008;SDS011;12217;50.792;4.372;2023-05-24T02:45:37;12.25;;;3.92;;
24008;SDS011;12217;50.792;4.372;2023-05-24T02:48:03;11.57;;;3.90;;
24008;SDS011;12217;50.792;4.372;2023-05-24T02:50:30;11.88;;;4.22;;
24008;SDS011;12217;50.792;4.372;2023-05-24T02:52:55;12.52;;;3.50;;
24008;SDS011;12217;50.792;4.372;2023-05-24T02:55:21;13.75;;;3.92;;
24008;SDS011;12217;50.792;4.372;2023-05-24T02:57:46;15.27;;;4.10;;
24008;SDS011;12217;50.792;4.372;2023-05-24T03:00:12;10.70;;;4.00;;
24008;SDS011;12217;50.792;4.372;2023-05-24T03:02:39;13.43;;;3.65;;
24008;SDS011;12217;50.792;4.372;2023-05-24T03:05:07;9.40;;;3.83;;
24008;SDS011;12217;50.792;4.372;2023-05-24T03:07:33;10.18;;;3.50;;
24008;SDS011;12217;50.792;4.372;2023-05-24T03:09:58;13.13;;;4.32;;
24008;SDS011;12217;50.792;4.372;2023-05-24T03:12:24;14.45;;;4.20;;
24008;SDS011;12217;50.792;4.372;2023-05-24T03:14:50;14.65;;;4.05;;
24008;SDS011;12217;50.792;4.372;2023-05-24T03:17:15;13.10;;;3.60;;
24008;SDS011;12217;50.792;4.372;2023-05-24T03:19:41;13.52;;;3.92;;
24008;SDS011;12217;50.792;4.372;2023-05-24T03:22:07;14.52;;;4.20;;
24008;SDS011;12217;50.792;4.372;2023-05-24T03:24:32;16.30;;;3.85;;
24008;SDS011;12217;50.792;4.372;2023-05-24T03:26:58;14.73;;;4.18;;
24008;SDS011;12217;50.792;4.372;2023-05-24T03:29:23;14.95;;;4.25;;
24008;SDS011;12217;50.792;4.372;2023-05-24T03:31:49;8.95;;;3.78;;
24008;SDS011;12217;50.792;4.372;2023-05-24T03:34:15;12.23;;;4.13;;
24008;SDS011;12217;50.792;4.372;2023-05-24T03:36:40;14.20;;;3.97;;
24008;SDS011;12217;50.792;4.372;2023-05-24T03:39:07;12.75;;;4.00;;
24008;SDS011;12217;50.792;4.372;2023-05-24T03:41:33;12.77;;;4.20;;
24008;SDS011;12217;50.792;4.372;2023-05-24T03:43:58;14.07;;;4.20;;
24008;SDS011;12217;50.792;4.372;2023-05-24T03:46:24;14.68;;;4.38;;
24008;SDS011;12217;50.792;4.372;2023-05-24T03:48:49;13.57;;;4.13;;
24008;SDS011;12217;50.792;4.372;2023-05-24T03:51:16;10.05;;;3.97;;
24008;SDS011;12217;50.792;4.372;2023-05-24T03:53:41;15.63;;;4.22;;
24008;SDS011;12217;50.792;4.372;2023-05-24T03:56:07;13.70;;;4.57;;
24008;SDS011;12217;50.792;4.372;2023-05-24T03:58:33;12.30;;;4.25;;
24008;SDS011;12217;50.792;4.372;2023-05-24T04:00:58;17.15;;;4.47;;
24008;SDS011;12217;50.792;4.372;2023-05-24T04:03:25;11.40;;;4.20;;
24008;SDS011;12217;50.792;4.372;2023-05-24T04:05:50;12.93;;;4.65;;
24008;SDS011;12217;50.792;4.372;2023-05-24T04:08:17;13.27;;;4.50;;
24008;SDS011;12217;50.792;4.372;2023-05-24T04:10:43;12.93;;;4.18;;
24008;SDS011;12217;50.792;4.372;2023-05-24T04:13:08;11.45;;;4.05;;
24008;SDS011;12217;50.792;4.372;2023-05-24T04:15:34;13.32;;;4.03;;
24008;SDS011;12217;50.792;4.372;2023-05-24T04:18:00;9.40;;;4.15;;
24008;SDS011;12217;50.792;4.372;2023-05-24T04:20:27;13.25;;;4.35;;
24008;SDS011;12217;50.792;4.372;2023-05-24T04:22:53;12.80;;;4.70;;
24008;SDS011;12217;50.792;4.372;2023-05-24T04:25:20;13.00;;;4.50;;
24008;SDS011;12217;50.792;4.372;2023-05-24T04:27:46;13.25;;;4.35;;
24008;SDS011;12217;50.792;4.372;2023-05-24T04:30:14;11.38;;;4.18;;
24008;SDS011;12217;50.792;4.372;2023-05-24T04:32:40;10.65;;;4.10;;
24008;SDS011;12217;50.792;4.372;2023-05-24T04:35:08;13.20;;;4.32;;
24008;SDS011;12217;50.792;4.372;2023-05-24T04:37:34;13.13;;;4.18;;
24008;SDS011;12217;50.792;4.372;2023-05-24T04:40:00;13.70;;;4.18;;
24008;SDS011;12217;50.792;4.372;2023-05-24T04:42:28;11.88;;;4.38;;
24008;SDS011;12217;50.792;4.372;2023-05-24T04:44:56;14.63;;;4.90;;
24008;SDS011;12217;50.792;4.372;2023-05-24T04:47:23;11.73;;;4.97;;
24008;SDS011;12217;50.792;4.372;2023-05-24T04:49:49;10.85;;;4.05;;
24008;SDS011;12217;50.792;4.372;2023-05-24T04:52:14;11.30;;;4.53;;
24008;SDS011;12217;50.792;4.372;2023-05-24T04:54:40;11.93;;;4.70;;
24008;SDS011;12217;50.792;4.372;2023-05-24T04:57:06;13.60;;;5.13;;
24008;SDS011;12217;50.792;4.372;2023-05-24T04:59:32;12.80;;;4.95;;
24008;SDS011;12217;50.792;4.372;2023-05-24T05:01:58;16.38;;;5.60;;
24008;SDS011;12217;50.792;4.372;2023-05-24T05:04:24;11.75;;;4.72;;
24008;SDS011;12217;50.792;4.372;2023-05-24T05:06:49;15.30;;;5.53;;
24008;SDS011;12217;50.792;4.372;2023-05-24T05:09:15;19.77;;;6.18;;
24008;SDS011;12217;50.792;4.372;2023-05-24T05:11:41;17.40;;;5.72;;
24008;SDS011;12217;50.792;4.372;2023-05-24T05:14:07;17.27;;;6.18;;
24008;SDS011;12217;50.792;4.372;2023-05-24T05:16:35;19.58;;;5.35;;
24008;SDS011;12217;50.792;4.372;2023-05-24T05:19:02;11.85;;;4.97;;
24008;SDS011;12217;50.792;4.372;2023-05-24T05:21:31;17.85;;;5.63;;
24008;SDS011;12217;50.792;4.372;2023-05-24T05:23:58;20.25;;;6.18;;
24008;SDS011;12217;50.792;4.372;2023-05-24T05:26:25;17.55;;;5.68;;
24008;SDS011;12217;50.792;4.372;2023-05-24T05:28:51;16.52;;;6.35;;
24008;SDS011;12217;50.792;4.372;2023-05-24T05:31:18;19.15;;;6.65;;
24008;SDS011;12217;50.792;4.372;2023-05-24T05:33:44;17.42;;;5.68;;
24008;SDS011;12217;50.792;4.372;2023-05-24T05:36:10;17.98;;;6.05;;
24008;SDS011;12217;50.792;4.372;2023-05-24T05:38:35;16.90;;;6.13;;
24008;SDS011;12217;50.792;4.372;2023-05-24T05:41:01;19.98;;;6.68;;
24008;SDS011;12217;50.792;4.372;2023-05-24T05:43:26;13.85;;;6.13;;
24008;SDS011;12217;50.792;4.372;2023-05-24T05:45:53;13.55;;;5.95;;
24008;SDS011;12217;50.792;4.372;2023-05-24T05:48:19;15.90;;;6.45;;
24008;SDS011;12217;50.792;4.372;2023-05-24T05:50:45;16.27;;;6.80;;
24008;SDS011;12217;50.792;4.372;2023-05-24T05:53:10;16.90;;;6.78;;
24008;SDS011;12217;50.792;4.372;2023-05-24T05:55:36;18.45;;;6.65;;
24008;SDS011;12217;50.792;4.372;2023-05-24T05:58:02;18.52;;;6.38;;
24008;SDS011;12217;50.792;4.372;2023-05-24T06:00:27;18.13;;;6.78;;
24008;SDS011;12217;50.792;4.372;2023-05-24T06:02:53;21.65;;;6.68;;
24008;SDS011;12217;50.792;4.372;2023-05-24T06:05:18;24.30;;;6.53;;
24008;SDS011;12217;50.792;4.372;2023-05-24T06:07:45;19.83;;;7.15;;
24008;SDS011;12217;50.792;4.372;2023-05-24T06:10:11;20.48;;;6.57;;
24008;SDS011;12217;50.792;4.372;2023-05-24T06:12:37;24.77;;;6.18;;
24008;SDS011;12217;50.792;4.372;2023-05-24T06:15:04;16.90;;;5.30;;
24008;SDS011;12217;50.792;4.372;2023-05-24T06:17:32;16.05;;;5.95;;
24008;SDS011;12217;50.792;4.372;2023-05-24T06:19:58;15.27;;;6.40;;
24008;SDS011;12217;50.792;4.372;2023-05-24T06:22:24;18.10;;;5.55;;
24008;SDS011;12217;50.792;4.372;2023-05-24T06:24:52;25.40;;;5.80;;
24008;SDS011;12217;50.792;4.372;2023-05-24T06:27:17;18.95;;;6.45;;
24008;SDS011;12217;50.792;4.372;2023-05-24T06:29:43;20.58;;;5.15;;
24008;SDS011;12217;50.792;4.372;2023-05-24T06:32:09;17.70;;;4.15;;
24008;SDS011;12217;50.792;4.372;2023-05-24T06:34:35;15.48;;;4.63;;
24008;SDS011;12217;50.792;4.372;2023-05-24T06:37:00;15.27;;;4.40;;
24008;SDS011;12217;50.792;4.372;2023-05-24T06:39:26;18.20;;;4.38;;
24008;SDS011;12217;50.792;4.372;2023-05-24T06:41:52;17.13;;;4.32;;
24008;SDS011;12217;50.792;4.372;2023-05-24T06:44:18;11.13;;;4.22;;
24008;SDS011;12217;50.792;4.372;2023-05-24T06:46:44;17.90;;;5.15;;
24008;SDS011;12217;50.792;4.372;2023-05-24T06:49:11;16.15;;;4.22;;
24008;SDS011;12217;50.792;4.372;2023-05-24T06:51:37;15.90;;;3.83;;
24008;SDS011;12217;50.792;4.372;2023-05-24T06:54:02;9.65;;;3.90;;
24008;SDS011;12217;50.792;4.372;2023-05-24T06:56:28;18.95;;;4.70;;
24008;SDS011;12217;50.792;4.372;2023-05-24T06:58:54;16.48;;;3.72;;
24008;SDS011;12217;50.792;4.372;2023-05-24T07:01:20;16.15;;;4.43;;
24008;SDS011;12217;50.792;4.372;2023-05-24T07:03:46;16.85;;;4.35;;
24008;SDS011;12217;50.792;4.372;2023-05-24T07:06:13;17.33;;;4.10;;
24008;SDS011;12217;50.792;4.372;2023-05-24T07:08:40;13.55;;;3.80;;
24008;SDS011;12217;50.792;4.372;2023-05-24T07:11:06;15.95;;;4.30;;
24008;SDS011;12217;50.792;4.372;2023-05-24T07:13:32;13.88;;;4.07;;
24008;SDS011;12217;50.792;4.372;2023-05-24T07:15:57;16.45;;;4.55;;
24008;SDS011;12217;50.792;4.372;2023-05-24T07:18:23;18.70;;;4.43;;
24008;SDS011;12217;50.792;4.372;2023-05-24T07:20:49;15.43;;;4.60;;
24008;SDS011;12217;50.792;4.372;2023-05-24T07:23:14;14.63;;;4.38;;
24008;SDS011;12217;50.792;4.372;2023-05-24T07:25:40;14.27;;;4.28;;
24008;SDS011;12217;50.792;4.372;2023-05-24T07:28:05;14.30;;;4.80;;
24008;SDS011;12217;50.792;4.372;2023-05-24T07:30:31;16.33;;;5.25;;
24008;SDS011;12217;50.792;4.372;2023-05-24T07:32:58;16.20;;;4.38;;
24008;SDS011;12217;50.792;4.372;2023-05-24T07:35:24;12.48;;;4.68;;
24008;SDS011;12217;50.792;4.372;2023-05-24T07:37:49;17.70;;;4.53;;
24008;SDS011;12217;50.792;4.372;2023-05-24T07:40:15;17.77;;;4.32;;
24008;SDS011;12217;50.792;4.372;2023-05-24T07:42:41;14.95;;;4.35;;
24008;SDS011;12217;50.792;4.372;2023-05-24T07:45:07;18.50;;;4.63;;
24008;SDS011;12217;50.792;4.372;2023-05-24T07:47:34;13.82;;;4.75;;
24008;SDS011;12217;50.792;4.372;2023-05-24T07:50:00;12.20;;;4.47;;
24008;SDS011;12217;50.792;4.372;2023-05-24T07:52:25;17.55;;;4.30;;
24008;SDS011;12217;50.792;4.372;2023-05-24T07:54:52;16.35;;;4.53;;
24008;SDS011;12217;50.792;4.372;2023-05-24T07:57:17;15.25;;;4.45;;
24008;SDS011;12217;50.792;4.372;2023-05-24T07:59:43;11.77;;;3.80;;
24008;SDS011;12217;50.792;4.372;2023-05-24T08:02:09;18.15;;;4.18;;
24008;SDS011;12217;50.792;4.372;2023-05-24T08:04:35;19.48;;;4.50;;
24008;SDS011;12217;50.792;4.372;2023-05-24T08:07:02;13.80;;;4.32;;
24008;SDS011;12217;50.792;4.372;2023-05-24T08:09:29;12.73;;;4.28;;
24008;SDS011;12217;50.792;4.372;2023-05-24T08:11:57;17.10;;;6.05;;
24008;SDS011;12217;50.792;4.372;2023-05-24T08:14:23;18.88;;;5.35;;
24008;SDS011;12217;50.792;4.372;2023-05-24T08:16:48;15.57;;;4.65;;
24008;SDS011;12217;50.792;4.372;2023-05-24T08:19:14;21.38;;;5.32;;
24008;SDS011;12217;50.792;4.372;2023-05-24T08:21:40;18.73;;;4.85;;
24008;SDS011;12217;50.792;4.372;2023-05-24T08:24:06;17.20;;;5.53;;
24008;SDS011;12217;50.792;4.372;2023-05-24T08:26:32;13.93;;;4.80;;
24008;SDS011;12217;50.792;4.372;2023-05-24T08:28:57;12.88;;;4.63;;
24008;SDS011;12217;50.792;4.372;2023-05-24T08:31:23;19.27;;;5.57;;
24008;SDS011;12217;50.792;4.372;2023-05-24T08:33:49;13.55;;;4.13;;
24008;SDS011;12217;50.792;4.372;2023-05-24T08:36:16;13.95;;;5.32;;
24008;SDS011;12217;50.792;4.372;2023-05-24T08:38:42;13.52;;;5.05;;
24008;SDS011;12217;50.792;4.372;2023-05-24T08:41:09;18.38;;;5.10;;
24008;SDS011;12217;50.792;4.372;2023-05-24T08:43:35;12.55;;;4.45;;
24008;SDS011;12217;50.792;4.372;2023-05-24T08:46:02;9.30;;;3.75;;
24008;SDS011;12217;50.792;4.372;2023-05-24T08:48:29;9.85;;;3.58;;
24008;SDS011;12217;50.792;4.372;2023-05-24T08:50:56;10.48;;;3.80;;
24008;SDS011;12217;50.792;4.372;2023-05-24T08:53:22;11.13;;;4.38;;
24008;SDS011;12217;50.792;4.372;2023-05-24T08:55:48;15.88;;;4.47;;
24008;SDS011;12217;50.792;4.372;2023-05-24T08:58:17;10.70;;;3.65;;
24008;SDS011;12217;50.792;4.372;2023-05-24T09:00:43;11.93;;;3.88;;
24008;SDS011;12217;50.792;4.372;2023-05-24T09:03:09;9.48;;;3.67;;
24008;SDS011;12217;50.792;4.372;2023-05-24T09:05:36;10.90;;;4.10;;
24008;SDS011;12217;50.792;4.372;2023-05-24T09:08:04;14.45;;;4.38;;
24008;SDS011;12217;50.792;4.372;2023-05-24T09:10:31;14.00;;;4.97;;
24008;SDS011;12217;50.792;4.372;2023-05-24T09:12:57;10.45;;;4.22;;
24008;SDS011;12217;50.792;4.372;2023-05-24T09:15:27;11.88;;;4.50;;
24008;SDS011;12217;50.792;4.372;2023-05-24T09:17:53;13.82;;;4.65;;
24008;SDS011;12217;50.792;4.372;2023-05-24T09:20:19;12.02;;;5.18;;
24008;SDS011;12217;50.792;4.372;2023-05-24T09:22:49;12.23;;;4.50;;
24008;SDS011;12217;50.792;4.372;2023-05-24T09:25:16;10.63;;;4.18;;
24008;SDS011;12217;50.792;4.372;2023-05-24T09:27:47;20.73;;;4.97;;
24008;SDS011;12217;50.792;4.372;2023-05-24T09:30:15;13.52;;;4.93;;
24008;SDS011;12217;50.792;4.372;2023-05-24T09:32:41;11.43;;;4.70;;
24008;SDS011;12217;50.792;4.372;2023-05-24T09:35:21;11.82;;;5.07;;
24008;SDS011;12217;50.792;4.372;2023-05-24T09:37:47;10.43;;;4.75;;
24008;SDS011;12217;50.792;4.372;2023-05-24T09:40:16;9.90;;;5.07;;
24008;SDS011;12217;50.792;4.372;2023-05-24T09:42:43;13.27;;;4.82;;
24008;SDS011;12217;50.792;4.372;2023-05-24T09:45:10;13.80;;;6.28;;
24008;SDS011;12217;50.792;4.372;2023-05-24T09:47:37;15.23;;;5.93;;
24008;SDS011;12217;50.792;4.372;2023-05-24T09:50:05;13.73;;;5.22;;
24008;SDS011;12217;50.792;4.372;2023-05-24T09:52:36;16.02;;;6.38;;
24008;SDS011;12217;50.792;4.372;2023-05-24T09:55:12;14.10;;;5.80;;
24008;SDS011;12217;50.792;4.372;2023-05-24T09:57:42;16.75;;;5.78;;
24008;SDS011;12217;50.792;4.372;2023-05-24T10:00:09;13.13;;;6.28;;
24008;SDS011;12217;50.792;4.372;2023-05-24T10:02:41;17.42;;;7.80;;
24008;SDS011;12217;50.792;4.372;2023-05-24T10:05:11;16.42;;;6.30;;
24008;SDS011;12217;50.792;4.372;2023-05-24T10:07:38;16.73;;;7.00;;
24008;SDS011;12217;50.792;4.372;2023-05-24T10:10:06;22.23;;;7.50;;
24008;SDS011;12217;50.792;4.372;2023-05-24T10:12:34;18.73;;;6.38;;
24008;SDS011;12217;50.792;4.372;2023-05-24T10:15:01;22.48;;;9.93;;
24008;SDS011;12217;50.792;4.372;2023-05-24T10:17:27;23.92;;;9.18;;
24008;SDS011;12217;50.792;4.372;2023-05-24T10:19:53;17.20;;;8.63;;
24008;SDS011;12217;50.792;4.372;2023-05-24T10:22:19;20.55;;;9.77;;
24008;SDS011;12217;50.792;4.372;2023-05-24T10:24:49;24.52;;;10.00;;
24008;SDS011;12217;50.792;4.372;2023-05-24T10:27:22;19.83;;;11.43;;
24008;SDS011;12217;50.792;4.372;2023-05-24T10:29:56;18.83;;;10.18;;
24008;SDS011;12217;50.792;4.372;2023-05-24T10:32:38;21.98;;;11.77;;
24008;SDS011;12217;50.792;4.372;2023-05-24T10:35:07;22.08;;;11.85;;
24008;SDS011;12217;50.792;4.372;2023-05-24T10:37:35;21.60;;;10.40;;
24008;SDS011;12217;50.792;4.372;2023-05-24T10:40:01;21.50;;;10.40;;
24008;SDS011;12217;50.792;4.372;2023-05-24T10:42:29;17.85;;;9.57;;
24008;SDS011;12217;50.792;4.372;2023-05-24T10:44:55;17.55;;;9.40;;
24008;SDS011;12217;50.792;4.372;2023-05-24T10:47:21;18.35;;;7.95;;
24008;SDS011;12217;50.792;4.372;2023-05-24T10:49:56;15.40;;;8.02;;
24008;SDS011;12217;50.792;4.372;2023-05-24T10:52:35;13.93;;;7.63;;
24008;SDS011;12217;50.792;4.372;2023-05-24T10:55:05;14.10;;;8.10;;
24008;SDS011;12217;50.792;4.372;2023-05-24T10:57:33;19.67;;;8.43;;
24008;SDS011;12217;50.792;4.372;2023-05-24T11:02:47;23.67;;;9.13;;
24008;SDS011;12217;50.792;4.372;2023-05-24T11:05:13;15.52;;;8.05;;
24008;SDS011;12217;50.792;4.372;2023-05-24T11:07:43;15.93;;;8.82;;
24008;SDS011;12217;50.792;4.372;2023-05-24T11:10:15;16.77;;;7.68;;
24008;SDS011;12217;50.792;4.372;2023-05-24T11:12:41;19.70;;;7.80;;
24008;SDS011;12217;50.792;4.372;2023-05-24T11:15:09;12.18;;;6.32;;
24008;SDS011;12217;50.792;4.372;2023-05-24T11:20:37;16.92;;;5.97;;
24008;SDS011;12217;50.792;4.372;2023-05-24T11:23:05;18.25;;;6.25;;
24008;SDS011;12217;50.792;4.372;2023-05-24T11:25:35;13.75;;;5.45;;
24008;SDS011;12217;50.792;4.372;2023-05-24T11:28:02;14.63;;;5.45;;
24008;SDS011;12217;50.792;4.372;2023-05-24T11:30:33;13.60;;;5.00;;
24008;SDS011;12217;50.792;4.372;2023-05-24T11:33:02;11.45;;;5.22;;
24008;SDS011;12217;50.792;4.372;2023-05-24T11:35:28;15.77;;;5.60;;
24008;SDS011;12217;50.792;4.372;2023-05-24T11:37:55;15.35;;;5.55;;
24008;SDS011;12217;50.792;4.372;2023-05-24T11:40:21;17.17;;;5.43;;
24008;SDS011;12217;50.792;4.372;2023-05-24T11:42:49;13.52;;;5.15;;
24008;SDS011;12217;50.792;4.372;2023-05-24T11:45:14;16.13;;;4.90;;
24008;SDS011;12217;50.792;4.372;2023-05-24T11:47:42;11.90;;;4.68;;
24008;SDS011;12217;50.792;4.372;2023-05-24T11:50:08;13.15;;;4.43;;
24008;SDS011;12217;50.792;4.372;2023-05-24T11:52:44;12.85;;;4.82;;
24008;SDS011;12217;50.792;4.372;2023-05-24T11:55:10;11.70;;;4.32;;
24008;SDS011;12217;50.792;4.372;2023-05-24T11:57:38;12.65;;;4.85;;
24008;SDS011;12217;50.792;4.372;2023-05-24T12:00:06;15.45;;;4.43;;
24008;SDS011;12217;50.792;4.372;2023-05-24T12:02:40;13.30;;;4.90;;
24008;SDS011;12217;50.792;4.372;2023-05-24T12:05:07;9.63;;;4.75;;
24008;SDS011;12217;50.792;4.372;2023-05-24T12:07:37;12.27;;;5.78;;
24008;SDS011;12217;50.792;4.372;2023-05-24T12:10:04;12.18;;;5.32;;
24008;SDS011;12217;50.792;4.372;2023-05-24T12:12:32;10.65;;;5.28;;
24008;SDS011;12217;50.792;4.372;2023-05-24T12:14:58;12.05;;;5.00;;
24008;SDS011;12217;50.792;4.372;2023-05-24T12:17:23;9.50;;;4.65;;
24008;SDS011;12217;50.792;4.372;2023-05-24T12:19:49;11.68;;;4.60;;
24008;SDS011;12217;50.792;4.372;2023-05-24T12:22:15;8.60;;;3.97;;
24008;SDS011;12217;50.792;4.372;2023-05-24T12:24:41;15.57;;;4.90;;
24008;SDS011;12217;50.792;4.372;2023-05-24T12:27:07;15.45;;;5.35;;
24008;SDS011;12217;50.792;4.372;2023-05-24T12:29:34;9.68;;;4.70;;
24008;SDS011;12217;50.792;4.372;2023-05-24T12:32:04;14.55;;;5.30;;
24008;SDS011;12217;50.792;4.372;2023-05-24T12:34:35;11.63;;;4.20;;
24008;SDS011;12217;50.792;4.372;2023-05-24T12:37:01;9.20;;;4.57;;
24008;SDS011;12217;50.792;4.372;2023-05-24T12:39:27;11.57;;;4.60;;
24008;SDS011;12217;50.792;4.372;2023-05-24T12:41:55;11.07;;;4.78;;
24008;SDS011;12217;50.792;4.372;2023-05-24T12:44:25;13.75;;;4.82;;
24008;SDS011;12217;50.792;4.372;2023-05-24T12:46:53;8.52;;;4.28;;
24008;SDS011;12217;50.792;4.372;2023-05-24T12:49:19;11.07;;;4.70;;
24008;SDS011;12217;50.792;4.372;2023-05-24T12:51:46;11.73;;;4.80;;
24008;SDS011;12217;50.792;4.372;2023-05-24T12:54:11;13.85;;;5.25;;
24008;SDS011;12217;50.792;4.372;2023-05-24T12:56:37;11.85;;;5.07;;
24008;SDS011;12217;50.792;4.372;2023-05-24T12:59:02;11.55;;;4.97;;
24008;SDS011;12217;50.792;4.372;2023-05-24T13:01:28;12.27;;;5.35;;
24008;SDS011;12217;50.792;4.372;2023-05-24T13:03:54;11.93;;;5.38;;
24008;SDS011;12217;50.792;4.372;2023-05-24T13:06:20;9.48;;;4.57;;
24008;SDS011;12217;50.792;4.372;2023-05-24T13:08:46;12.55;;;4.72;;
24008;SDS011;12217;50.792;4.372;2023-05-24T13:11:12;8.82;;;5.10;;
24008;SDS011;12217;50.792;4.372;2023-05-24T13:13:38;9.73;;;4.95;;
24008;SDS011;12217;50.792;4.372;2023-05-24T13:16:03;16.05;;;5.93;;
24008;SDS011;12217;50.792;4.372;2023-05-24T13:18:31;12.85;;;5.50;;
24008;SDS011;12217;50.792;4.372;2023-05-24T13:20:57;11.48;;;5.22;;
24008;SDS011;12217;50.792;4.372;2023-05-24T13:23:24;11.57;;;5.60;;
24008;SDS011;12217;50.792;4.372;2023-05-24T13:25:51;10.55;;;6.00;;
24008;SDS011;12217;50.792;4.372;2023-05-24T13:28:17;13.55;;;5.18;;
24008;SDS011;12217;50.792;4.372;2023-05-24T13:30:43;9.15;;;4.80;;
24008;SDS011;12217;50.792;4.372;2023-05-24T13:33:10;14.20;;;5.32;;
24008;SDS011;12217;50.792;4.372;2023-05-24T13:35:36;9.48;;;5.35;;
24008;SDS011;12217;50.792;4.372;2023-05-24T13:38:01;10.90;;;5.13;;
24008;SDS011;12217;50.792;4.372;2023-05-24T13:40:27;16.05;;;5.07;;
24008;SDS011;12217;50.792;4.372;2023-05-24T13:42:55;10.85;;;5.10;;
24008;SDS011;12217;50.792;4.372;2023-05-24T13:45:21;9.40;;;4.88;;
24008;SDS011;12217;50.792;4.372;2023-05-24T13:47:47;12.52;;;5.03;;
24008;SDS011;12217;50.792;4.372;2023-05-24T13:50:13;10.32;;;4.80;;
24008;SDS011;12217;50.792;4.372;2023-05-24T13:52:39;11.52;;;5.57;;
24008;SDS011;12217;50.792;4.372;2023-05-24T13:55:05;9.85;;;5.68;;
24008;SDS011;12217;50.792;4.372;2023-05-24T13:57:31;8.52;;;4.80;;
24008;SDS011;12217;50.792;4.372;2023-05-24T13:59:57;12.63;;;4.80;;
24008;SDS011;12217;50.792;4.372;2023-05-24T14:02:23;10.73;;;5.00;;
24008;SDS011;12217;50.792;4.372;2023-05-24T14:04:49;11.23;;;4.95;;
24008;SDS011;12217;50.792;4.372;2023-05-24T14:07:15;10.77;;;4.97;;
24008;SDS011;12217;50.792;4.372;2023-05-24T14:09:40;11.55;;;5.30;;
24008;SDS011;12217;50.792;4.372;2023-05-24T14:12:06;9.02;;;5.43;;
24008;SDS011;12217;50.792;4.372;2023-05-24T14:14:33;7.30;;;4.35;;
24008;SDS011;12217;50.792;4.372;2023-05-24T14:16:58;13.95;;;4.88;;
24008;SDS011;12217;50.792;4.372;2023-05-24T14:19:24;12.90;;;5.35;;
24008;SDS011;12217;50.792;4.372;2023-05-24T14:21:50;11.25;;;4.75;;
24008;SDS011;12217;50.792;4.372;2023-05-24T14:24:16;10.65;;;5.00;;
24008;SDS011;12217;50.792;4.372;2023-05-24T14:26:41;11.05;;;4.45;;
24008;SDS011;12217;50.792;4.372;2023-05-24T14:29:07;13.55;;;5.35;;
24008;SDS011;12217;50.792;4.372;2023-05-24T14:31:33;14.27;;;5.10;;
24008;SDS011;12217;50.792;4.372;2023-05-24T14:34:06;15.30;;;5.43;;
24008;SDS011;12217;50.792;4.372;2023-05-24T14:36:33;10.93;;;5.70;;
24008;SDS011;12217;50.792;4.372;2023-05-24T14:38:59;10.82;;;4.70;;
24008;SDS011;12217;50.792;4.372;2023-05-24T14:41:25;14.25;;;5.15;;
24008;SDS011;12217;50.792;4.372;2023-05-24T14:43:51;14.38;;;5.90;;
24008;SDS011;12217;50.792;4.372;2023-05-24T14:46:16;13.05;;;5.82;;